Time;durP1;ratioP1;P1;durP2;ratioP2;P2;SDS_P1;SDS_P2;PMS_P1;PMS_P2;Temp;Humidity;BMP_temperature;BMP_pressure;BME280_temperature;BME280_humidity;BME280_pressure;Samples;Min_cycle;Max_cycle;Signal;HPM_P1;HPM_P2
2022/02/13 00:02:06;;;;;;;1.08;0.90;;;2.50;77.70;;;;;;6183738;23;20009;-71
2022/02/13 00:04:33;;;;;;;2.05;0.90;;;2.50;77.70;;;;;;6183391;23;20093;-71
2022/02/13 00:06:58;;;;;;;2.75;0.98;;;2.50;77.90;;;;;;6183485;23;20005;-71
2022/02/13 00:09:24;;;;;;;1.85;1.20;;;2.50;78.00;;;;;;6183696;23;20001;-71
2022/02/13 00:11:50;;;;;;;1.98;0.95;;;2.40;78.00;;;;;;6182045;23;20007;-71
2022/02/13 00:14:16;;;;;;;2.72;1.02;;;2.40;78.00;;;;;;6183465;23;20414;-71
2022/02/13 00:16:41;;;;;;;1.67;0.90;;;2.50;78.00;;;;;;6183985;23;20634;-71
2022/02/13 00:19:07;;;;;;;1.70;1.08;;;2.50;78.60;;;;;;6156992;23;20135;-71
2022/02/13 00:21:33;;;;;;;1.77;0.98;;;2.40;77.90;;;;;;6181046;23;20004;-72
2022/02/13 00:23:59;;;;;;;1.52;0.85;;;2.40;78.00;;;;;;6183355;23;20016;-71
2022/02/13 00:26:25;;;;;;;1.95;0.90;;;2.40;78.30;;;;;;6183455;23;20092;-72
2022/02/13 00:28:51;;;;;;;1.52;0.95;;;2.30;78.20;;;;;;6183999;23;20013;-71
2022/02/13 00:31:16;;;;;;;1.40;0.73;;;2.40;78.30;;;;;;6183906;23;20021;-72
2022/02/13 00:33:42;;;;;;;1.25;0.70;;;2.30;78.40;;;;;;6157258;23;20001;-72
2022/02/13 00:36:08;;;;;;;1.33;0.60;;;2.20;78.40;;;;;;6183043;23;20005;-72
2022/02/13 00:38:33;;;;;;;1.05;0.70;;;2.20;78.50;;;;;;6183688;23;20084;-72
2022/02/13 00:40:59;;;;;;;0.98;0.60;;;2.10;78.50;;;;;;6181747;23;20009;-71
2022/02/13 00:43:25;;;;;;;1.20;0.70;;;2.10;78.70;;;;;;6183731;23;20054;-71
2022/02/13 00:45:50;;;;;;;1.42;0.70;;;2.00;78.60;;;;;;6183115;23;20009;-72
2022/02/13 00:48:17;;;;;;;1.88;0.85;;;2.00;78.70;;;;;;6183239;23;20009;-72
2022/02/13 00:50:45;;;;;;;1.58;0.70;;;2.00;78.90;;;;;;6183250;23;20299;-72
2022/02/13 00:53:11;;;;;;;1.38;0.70;;;1.90;78.90;;;;;;6183169;23;19997;-72
2022/02/13 00:55:37;;;;;;;0.43;0.43;;;1.90;78.90;;;;;;6183710;23;20011;-71
2022/02/13 00:58:03;;;;;;;2.17;0.60;;;1.90;79.00;;;;;;6183669;23;20001;-72
2022/02/13 01:00:28;;;;;;;1.30;0.60;;;1.80;79.00;;;;;;6183344;23;20084;-72
2022/02/13 01:02:54;;;;;;;0.75;0.70;;;1.80;79.10;;;;;;6181637;23;20032;-71
2022/02/13 01:05:20;;;;;;;0.73;0.52;;;1.80;79.20;;;;;;6183168;23;20040;-71
2022/02/13 01:07:46;;;;;;;0.77;0.50;;;1.80;79.30;;;;;;6183003;23;20055;-72
2022/02/13 01:10:12;;;;;;;1.13;0.63;;;1.70;79.30;;;;;;6183023;23;20021;-71
2022/02/13 01:12:38;;;;;;;1.25;0.55;;;1.70;79.40;;;;;;6180048;23;20026;-71
2022/02/13 01:15:04;;;;;;;1.30;0.80;;;1.70;79.40;;;;;;6156566;23;20512;-71
2022/02/13 01:17:30;;;;;;;0.73;0.50;;;1.60;79.40;;;;;;6182881;23;20016;-72
2022/02/13 01:19:56;;;;;;;1.05;0.63;;;1.50;79.40;;;;;;6183635;23;20083;-71
2022/02/13 01:22:21;;;;;;;0.70;0.60;;;1.60;79.50;;;;;;6183069;23;20322;-71
2022/02/13 01:24:47;;;;;;;2.13;0.60;;;1.60;79.60;;;;;;6182666;23;20012;-71
2022/02/13 01:27:14;;;;;;;1.63;0.80;;;1.70;79.80;;;;;;6182878;23;20084;-70
2022/02/13 01:29:42;;;;;;;1.50;0.80;;;1.60;79.70;;;;;;6179977;23;20021;-71
2022/02/13 01:32:08;;;;;;;3.50;1.08;;;1.60;79.50;;;;;;6182775;23;20334;-70
2022/02/13 01:34:34;;;;;;;1.08;0.70;;;1.50;79.50;;;;;;6182990;23;20076;-70
2022/02/13 01:37:00;;;;;;;1.30;0.80;;;1.60;79.60;;;;;;6182709;23;20037;-71
2022/02/13 01:39:25;;;;;;;1.08;0.70;;;1.50;79.50;;;;;;6156462;23;20021;-70
2022/02/13 01:41:51;;;;;;;1.27;0.70;;;1.50;79.70;;;;;;6183419;23;20080;-70
2022/02/13 01:44:27;;;;;;;1.20;0.57;;;1.40;79.70;;;;;;6182890;23;20084;-71
2022/02/13 01:46:53;;;;;;;1.55;0.80;;;1.40;79.80;;;;;;6183839;23;20020;-71
2022/02/13 01:49:19;;;;;;;1.95;0.82;;;1.30;79.90;;;;;;6184005;23;20001;-72
2022/02/13 01:51:45;;;;;;;1.92;0.90;;;1.40;79.90;;;;;;6184299;23;20456;-73
2022/02/13 01:54:11;;;;;;;1.02;0.63;;;1.30;79.90;;;;;;6179435;23;20492;-72
2022/02/13 01:56:38;;;;;;;0.63;0.63;;;1.30;80.00;;;;;;6184689;23;20013;-71
2022/02/13 01:59:05;;;;;;;1.45;0.70;;;1.30;79.90;;;;;;6184612;23;20005;-72
2022/02/13 02:01:31;;;;;;;1.25;0.80;;;1.40;80.00;;;;;;6184781;23;20005;-72
2022/02/13 02:03:58;;;;;;;1.13;0.75;;;1.40;79.90;;;;;;6183975;23;20005;-72
2022/02/13 02:06:24;;;;;;;0.90;0.55;;;1.30;79.80;;;;;;6184234;23;20051;-72
2022/02/13 02:08:49;;;;;;;1.30;0.90;;;1.30;80.00;;;;;;6184519;23;20001;-72
2022/02/13 02:11:15;;;;;;;2.72;1.10;;;1.30;80.00;;;;;;6184509;23;20004;-72
2022/02/13 02:13:41;;;;;;;1.77;0.90;;;1.30;80.00;;;;;;6184585;23;20062;-72
2022/02/13 02:16:08;;;;;;;1.65;0.70;;;1.30;79.90;;;;;;6183034;23;20005;-72
2022/02/13 02:18:34;;;;;;;1.35;0.80;;;1.40;80.00;;;;;;6182292;23;20005;-72
2022/02/13 02:21:03;;;;;;;1.80;1.02;;;1.30;79.90;;;;;;6182706;23;20492;-72
2022/02/13 02:23:29;;;;;;;1.75;1.05;;;1.40;80.00;;;;;;6184151;23;20017;-72
2022/02/13 02:25:55;;;;;;;1.45;1.05;;;1.40;79.90;;;;;;6184320;23;20070;-72
2022/02/13 02:28:20;;;;;;;1.42;1.02;;;1.30;79.80;;;;;;6183868;23;20392;-72
2022/02/13 02:30:46;;;;;;;1.77;0.90;;;1.30;79.90;;;;;;6183864;23;19993;-72
2022/02/13 02:33:12;;;;;;;1.67;1.00;;;1.30;79.90;;;;;;6184295;23;19997;-72
2022/02/13 02:35:39;;;;;;;2.47;1.00;;;1.30;79.90;;;;;;6157393;23;20088;-72
2022/02/13 02:38:05;;;;;;;2.75;1.10;;;1.40;79.90;;;;;;6184651;23;20009;-72
2022/02/13 02:40:30;;;;;;;2.63;1.20;;;1.40;79.80;;;;;;6184531;23;20350;-72
2022/02/13 02:42:56;;;;;;;3.92;1.30;;;1.40;79.80;;;;;;6179959;23;20092;-72
2022/02/13 02:45:22;;;;;;;2.58;1.20;;;1.40;79.80;;;;;;6183810;23;20010;-72
2022/02/13 02:47:48;;;;;;;1.70;1.10;;;1.40;79.80;;;;;;6182431;23;20008;-72
2022/02/13 02:50:14;;;;;;;2.28;1.42;;;1.40;79.80;;;;;;6183751;23;20025;-72
2022/02/13 02:52:40;;;;;;;2.15;1.05;;;1.40;79.80;;;;;;6184374;23;19997;-72
2022/02/13 02:55:07;;;;;;;2.10;1.30;;;1.40;79.90;;;;;;6157451;23;20460;-73
2022/02/13 02:57:34;;;;;;;2.15;1.00;;;1.40;79.80;;;;;;6179048;23;20426;-72
2022/02/13 03:00:00;;;;;;;1.95;1.20;;;1.40;79.90;;;;;;6183675;23;20008;-71
2022/02/13 03:02:26;;;;;;;1.58;1.08;;;1.40;80.00;;;;;;6183219;23;20001;-72
2022/02/13 03:04:52;;;;;;;2.35;1.10;;;1.40;80.00;;;;;;6183831;23;20016;-72
2022/02/13 03:07:17;;;;;;;3.00;1.13;;;1.40;80.00;;;;;;6183637;23;20008;-72
2022/02/13 03:09:43;;;;;;;2.97;1.08;;;1.40;80.00;;;;;;6183847;23;20009;-72
2022/02/13 03:12:09;;;;;;;2.80;1.20;;;1.40;79.90;;;;;;6180771;23;20026;-72
2022/02/13 03:14:35;;;;;;;1.98;1.20;;;1.30;79.90;;;;;;6180963;23;20002;-72
2022/02/13 03:17:03;;;;;;;1.92;1.20;;;1.40;80.00;;;;;;6184291;23;20009;-72
2022/02/13 03:19:29;;;;;;;2.97;1.48;;;1.40;80.00;;;;;;6182473;23;20001;-72
2022/02/13 03:21:55;;;;;;;2.55;1.23;;;1.40;80.10;;;;;;6183854;23;20077;-72
2022/02/13 03:24:21;;;;;;;1.80;1.10;;;1.40;80.00;;;;;;6183659;23;20363;-72
2022/02/13 03:26:48;;;;;;;2.63;1.20;;;1.40;80.00;;;;;;6183460;23;20021;-72
2022/02/13 03:29:14;;;;;;;2.38;1.30;;;1.40;80.00;;;;;;6184165;23;19998;-72
2022/02/13 03:31:41;;;;;;;3.25;1.27;;;1.40;80.00;;;;;;6182037;23;20076;-72
2022/02/13 03:34:06;;;;;;;2.85;1.33;;;1.40;80.10;;;;;;6184313;23;19997;-72
2022/02/13 03:36:33;;;;;;;2.50;1.30;;;1.40;80.00;;;;;;6183565;23;20013;-71
2022/02/13 03:38:59;;;;;;;2.35;1.30;;;1.50;80.10;;;;;;6183805;23;20080;-71
2022/02/13 03:41:25;;;;;;;3.08;1.50;;;1.40;80.00;;;;;;6183893;23;20457;-71
2022/02/13 03:43:51;;;;;;;3.03;1.38;;;1.40;79.90;;;;;;6183875;23;20001;-71
2022/02/13 03:46:17;;;;;;;3.30;1.52;;;1.50;80.00;;;;;;6183817;23;20455;-71
2022/02/13 03:48:43;;;;;;;3.20;1.20;;;1.40;79.90;;;;;;6183517;23;20084;-71
2022/02/13 03:51:09;;;;;;;2.40;1.27;;;1.50;80.10;;;;;;6183583;23;20020;-71
2022/02/13 03:53:35;;;;;;;2.10;1.20;;;1.50;80.00;;;;;;6183498;23;20055;-72
2022/02/13 03:56:01;;;;;;;2.10;1.10;;;1.50;80.00;;;;;;6183336;23;20084;-71
2022/02/13 03:58:26;;;;;;;2.42;1.30;;;1.50;79.90;;;;;;6184108;23;20322;-71
2022/02/13 04:00:52;;;;;;;2.25;1.33;;;1.60;79.90;;;;;;6183727;23;20005;-71
2022/02/13 04:03:18;;;;;;;3.75;1.38;;;1.60;79.80;;;;;;6183941;23;20035;-72
2022/02/13 04:05:43;;;;;;;2.30;1.27;;;1.60;79.80;;;;;;6183844;23;20060;-71
2022/02/13 04:08:09;;;;;;;2.92;1.42;;;1.60;79.70;;;;;;6184019;23;20492;-72
2022/02/13 04:10:35;;;;;;;2.20;1.15;;;1.70;79.80;;;;;;6183425;23;20813;-71
2022/02/13 04:13:01;;;;;;;3.38;1.30;;;1.60;79.70;;;;;;6182004;23;20008;-72
2022/02/13 04:15:27;;;;;;;4.22;1.35;;;1.70;79.70;;;;;;6183772;23;20007;-71
2022/02/13 04:17:53;;;;;;;1.95;1.15;;;1.70;79.70;;;;;;6183745;23;20084;-71
2022/02/13 04:20:20;;;;;;;1.52;1.00;;;1.70;79.70;;;;;;6183616;23;20001;-71
2022/02/13 04:22:46;;;;;;;2.20;1.20;;;1.70;80.40;;;;;;6184101;23;20290;-71
2022/02/13 04:25:12;;;;;;;2.72;1.30;;;1.70;79.80;;;;;;6182997;23;20376;-72
2022/02/13 04:27:38;;;;;;;2.05;1.27;;;1.70;79.80;;;;;;6183370;23;20009;-71
2022/02/13 04:30:06;;;;;;;2.97;1.35;;;1.70;79.80;;;;;;6183356;23;20453;-72
2022/02/13 04:32:32;;;;;;;2.58;1.40;;;1.70;79.70;;;;;;6157262;23;20008;-72
2022/02/13 04:34:58;;;;;;;1.85;1.23;;;1.70;79.60;;;;;;6182075;23;20367;-71
2022/02/13 04:37:24;;;;;;;2.33;1.05;;;1.70;79.70;;;;;;6183645;23;20036;-71
2022/02/13 04:39:50;;;;;;;1.63;1.02;;;1.60;79.90;;;;;;6183205;23;20001;-71
2022/02/13 04:42:16;;;;;;;2.83;1.23;;;1.70;80.10;;;;;;6183250;23;20001;-71
2022/02/13 04:44:42;;;;;;;1.15;0.90;;;1.60;80.10;;;;;;6183086;23;20016;-71
2022/02/13 04:47:08;;;;;;;1.42;1.00;;;1.60;80.10;;;;;;6183865;23;20009;-71
2022/02/13 04:49:35;;;;;;;1.65;0.90;;;1.60;80.10;;;;;;6183212;23;20429;-71
2022/02/13 04:52:00;;;;;;;2.10;1.00;;;1.60;80.20;;;;;;6183236;23;20005;-71
2022/02/13 04:54:26;;;;;;;2.88;1.20;;;1.60;80.20;;;;;;6183385;23;20006;-71
2022/02/13 04:56:52;;;;;;;1.38;1.10;;;1.60;80.30;;;;;;6183341;23;20025;-72
2022/02/13 04:59:19;;;;;;;2.17;1.20;;;1.50;80.20;;;;;;6183341;23;20385;-71
2022/02/13 05:01:45;;;;;;;1.77;1.02;;;1.60;80.90;;;;;;6183510;23;20012;-72
2022/02/13 05:04:11;;;;;;;1.52;0.80;;;1.50;80.30;;;;;;6183181;23;20013;-71
2022/02/13 05:06:36;;;;;;;1.33;0.80;;;1.50;80.30;;;;;;6182104;23;20010;-71
2022/02/13 05:09:03;;;;;;;1.90;0.95;;;1.50;80.30;;;;;;6183230;23;20084;-71
2022/02/13 05:11:29;;;;;;;1.00;0.70;;;1.50;80.30;;;;;;6181788;23;20108;-71
2022/02/13 05:13:55;;;;;;;1.42;0.90;;;1.50;80.30;;;;;;6183171;23;20437;-71
2022/02/13 05:16:21;;;;;;;2.75;1.00;;;1.50;80.40;;;;;;6180337;23;20064;-71
2022/02/13 05:18:47;;;;;;;2.90;0.95;;;1.50;80.40;;;;;;6183836;23;20033;-71
2022/02/13 05:21:13;;;;;;;1.67;0.93;;;1.50;80.50;;;;;;6183450;23;20303;-71
2022/02/13 05:23:38;;;;;;;1.20;0.80;;;1.50;80.50;;;;;;6182605;23;20009;-72
2022/02/13 05:26:04;;;;;;;1.63;1.00;;;1.50;80.50;;;;;;6183164;23;20009;-71
2022/02/13 05:28:30;;;;;;;1.88;0.90;;;1.40;80.50;;;;;;6184969;23;20005;-72
2022/02/13 05:30:56;;;;;;;0.82;0.65;;;1.40;80.60;;;;;;6185075;23;20055;-72
2022/02/13 05:33:22;;;;;;;0.90;0.80;;;1.40;80.60;;;;;;6184751;23;20040;-72
2022/02/13 05:35:47;;;;;;;1.55;0.75;;;1.40;80.70;;;;;;6158532;23;20005;-72
2022/02/13 05:38:13;;;;;;;1.85;0.70;;;1.30;80.70;;;;;;6157925;23;20020;-72
2022/02/13 05:40:39;;;;;;;1.33;0.80;;;1.30;80.80;;;;;;6184824;23;20001;-72
2022/02/13 05:43:05;;;;;;;1.42;0.60;;;1.20;80.80;;;;;;6185014;23;20430;-72
2022/02/13 05:45:30;;;;;;;2.28;1.00;;;1.20;80.90;;;;;;6183634;23;20056;-72
2022/02/13 05:47:56;;;;;;;1.27;0.80;;;1.20;81.00;;;;;;6184856;23;20005;-72
2022/02/13 05:50:22;;;;;;;1.35;0.70;;;1.20;81.00;;;;;;6184346;23;20001;-72
2022/02/13 05:52:48;;;;;;;2.03;0.88;;;1.20;81.00;;;;;;6184163;23;20002;-72
2022/02/13 05:55:14;;;;;;;1.48;0.75;;;1.20;80.90;;;;;;6184967;23;20024;-72
2022/02/13 05:57:42;;;;;;;1.45;0.88;;;1.20;81.60;;;;;;6184302;23;20001;-72
2022/02/13 06:00:11;;;;;;;0.52;0.52;;;1.10;81.00;;;;;;6184435;23;19997;-72
2022/02/13 06:02:39;;;;;;;1.60;0.98;;;1.20;81.00;;;;;;6185096;23;20008;-72
2022/02/13 06:05:06;;;;;;;1.00;0.60;;;1.10;80.90;;;;;;6182745;23;20012;-72
2022/02/13 06:07:40;;;;;;;1.52;0.80;;;1.20;81.10;;;;;;6185013;23;20012;-72
2022/02/13 06:10:07;;;;;;;1.50;1.00;;;1.10;81.10;;;;;;6184911;23;20028;-72
2022/02/13 06:12:33;;;;;;;2.22;1.10;;;1.20;81.10;;;;;;6182767;23;20020;-72
2022/02/13 06:14:59;;;;;;;1.80;0.95;;;1.10;81.00;;;;;;6182751;23;20189;-72
2022/02/13 06:17:25;;;;;;;0.68;0.57;;;1.10;81.00;;;;;;6184871;23;20447;-72
2022/02/13 06:19:50;;;;;;;2.00;0.90;;;1.10;81.00;;;;;;6184062;23;20029;-72
2022/02/13 06:22:16;;;;;;;1.73;0.90;;;1.10;81.10;;;;;;6181680;23;20005;-72
2022/02/13 06:24:42;;;;;;;2.17;1.20;;;1.10;81.10;;;;;;6182163;23;20028;-72
2022/02/13 06:27:07;;;;;;;1.02;0.68;;;1.10;81.10;;;;;;6182501;23;20345;-72
2022/02/13 06:29:33;;;;;;;2.78;1.10;;;1.20;81.20;;;;;;6157142;23;20083;-72
2022/02/13 06:32:00;;;;;;;3.55;0.82;;;1.20;81.10;;;;;;6184152;23;20001;-72
2022/02/13 06:34:26;;;;;;;2.55;1.23;;;1.20;81.10;;;;;;6183457;23;20005;-72
2022/02/13 06:36:52;;;;;;;1.67;1.02;;;1.20;80.90;;;;;;6184107;23;20084;-72
2022/02/13 06:39:18;;;;;;;1.75;1.10;;;1.20;80.90;;;;;;6184193;23;20097;-72
2022/02/13 06:41:43;;;;;;;1.42;0.88;;;1.20;80.80;;;;;;6184372;23;20004;-72
2022/02/13 06:44:09;;;;;;;3.20;1.00;;;1.20;80.80;;;;;;6184686;23;20011;-72
2022/02/13 06:46:35;;;;;;;2.33;1.00;;;1.20;80.80;;;;;;6184021;23;20075;-72
2022/02/13 06:49:01;;;;;;;1.92;1.10;;;1.30;81.00;;;;;;6184476;23;20018;-72
2022/02/13 06:51:26;;;;;;;1.60;0.98;;;1.30;80.90;;;;;;6184368;23;20001;-72
2022/02/13 06:53:52;;;;;;;1.90;1.00;;;1.30;80.90;;;;;;6180834;23;20056;-72
2022/02/13 06:56:18;;;;;;;1.40;0.90;;;1.30;80.90;;;;;;6182900;23;20056;-72
2022/02/13 06:58:44;;;;;;;1.27;0.82;;;1.30;80.90;;;;;;6184605;23;20346;-71
2022/02/13 07:01:10;;;;;;;1.73;1.08;;;1.30;80.80;;;;;;6183205;23;20008;-71
2022/02/13 07:03:36;;;;;;;1.42;0.90;;;1.30;80.90;;;;;;6184487;23;20005;-71
2022/02/13 07:06:03;;;;;;;2.28;1.15;;;1.40;80.80;;;;;;6180255;23;20020;-72
2022/02/13 07:08:29;;;;;;;1.60;1.00;;;1.40;80.70;;;;;;6182818;23;20012;-72
2022/02/13 07:10:57;;;;;;;1.85;0.95;;;1.40;80.60;;;;;;6183715;23;20326;-72
2022/02/13 07:13:23;;;;;;;1.40;0.90;;;1.50;80.70;;;;;;6182893;23;20388;-71
2022/02/13 07:15:49;;;;;;;1.98;1.00;;;1.40;80.60;;;;;;6157309;23;20001;-72
2022/02/13 07:18:15;;;;;;;1.17;0.70;;;1.50;80.70;;;;;;6180978;23;20068;-72
2022/02/13 07:20:41;;;;;;;1.83;0.85;;;1.50;80.70;;;;;;6184473;23;20008;-72
2022/02/13 07:23:07;;;;;;;1.23;0.73;;;1.50;80.80;;;;;;6184187;23;20005;-72
2022/02/13 07:25:33;;;;;;;1.17;0.80;;;1.50;80.80;;;;;;6182350;23;20080;-72
2022/02/13 07:28:58;;;;;;;1.60;1.00;;;1.50;80.70;;;;;;6182810;23;20029;-72
2022/02/13 07:30:46;;;;;;;1.70;0.85;;;1.60;80.70;;;;;;6183749;23;20442;-72
2022/02/13 07:33:12;;;;;;;1.73;0.80;;;1.50;80.60;;;;;;6182928;23;20053;-71
2022/02/13 07:35:40;;;;;;;1.13;0.70;;;1.60;80.70;;;;;;6183704;23;19997;-71
2022/02/13 07:38:06;;;;;;;2.50;1.08;;;1.60;80.60;;;;;;6184093;23;20368;-72
2022/02/13 07:40:32;;;;;;;1.98;0.80;;;1.70;80.60;;;;;;6184343;23;20032;-71
2022/02/13 07:42:58;;;;;;;1.92;1.00;;;1.70;80.50;;;;;;6184256;23;20055;-71
2022/02/13 07:45:24;;;;;;;1.30;0.90;;;1.80;80.50;;;;;;6184064;23;20013;-72
2022/02/13 07:47:50;;;;;;;1.70;1.20;;;1.80;80.40;;;;;;6183754;23;20001;-71
2022/02/13 07:50:15;;;;;;;1.95;1.10;;;1.90;80.40;;;;;;6184205;23;20028;-72
2022/02/13 07:52:41;;;;;;;1.80;1.00;;;1.90;80.20;;;;;;6183724;23;19998;-72
2022/02/13 07:55:07;;;;;;;2.60;1.30;;;2.00;80.20;;;;;;6184039;23;20008;-71
2022/02/13 07:57:33;;;;;;;3.05;1.55;;;2.10;80.20;;;;;;6157594;23;20096;-72
2022/02/13 07:59:59;;;;;;;3.20;1.63;;;2.10;80.00;;;;;;6184224;23;20028;-72
2022/02/13 08:02:25;;;;;;;2.63;1.50;;;2.20;79.80;;;;;;6183661;23;20029;-71
2022/02/13 08:04:50;;;;;;;3.60;1.48;;;2.30;79.70;;;;;;6183615;23;20013;-72
2022/02/13 08:07:16;;;;;;;2.60;1.30;;;2.30;79.50;;;;;;6183725;23;20385;-72
2022/02/13 08:09:42;;;;;;;2.90;1.30;;;2.40;79.50;;;;;;6183888;23;19997;-72
2022/02/13 08:12:09;;;;;;;2.38;1.30;;;2.50;79.40;;;;;;6184144;23;20001;-72
2022/02/13 08:14:35;;;;;;;2.05;1.10;;;2.50;79.30;;;;;;6183599;23;20071;-72
2022/02/13 08:17:01;;;;;;;3.38;1.20;;;2.60;79.30;;;;;;6155193;23;20504;-71
2022/02/13 08:19:27;;;;;;;1.67;1.10;;;2.60;79.30;;;;;;6157156;23;20009;-72
2022/02/13 08:21:53;;;;;;;1.75;1.20;;;2.70;79.30;;;;;;6184275;23;20016;-72
2022/02/13 08:24:19;;;;;;;1.50;1.00;;;2.70;79.30;;;;;;6183650;23;20063;-72
2022/02/13 08:26:45;;;;;;;2.33;0.95;;;2.70;79.30;;;;;;6183425;23;20783;-71
2022/02/13 08:29:11;;;;;;;2.28;1.17;;;2.80;79.30;;;;;;6184021;23;20001;-71
2022/02/13 08:31:37;;;;;;;2.03;1.15;;;2.80;79.20;;;;;;6184340;23;20076;-72
2022/02/13 08:34:02;;;;;;;2.25;1.10;;;2.80;79.10;;;;;;6184219;23;20004;-72
2022/02/13 08:36:28;;;;;;;2.72;1.40;;;2.90;79.10;;;;;;6183585;23;20362;-72
2022/02/13 08:38:54;;;;;;;2.65;1.48;;;3.00;79.10;;;;;;6183431;23;20044;-71
2022/02/13 08:41:19;;;;;;;2.65;1.45;;;3.00;79.00;;;;;;6183746;23;20001;-71
2022/02/13 08:43:48;;;;;;;2.90;1.40;;;3.10;78.90;;;;;;6180803;23;20461;-71
2022/02/13 08:46:13;;;;;;;3.78;1.27;;;3.20;78.90;;;;;;6183579;23;20009;-72
2022/02/13 08:48:42;;;;;;;2.25;1.08;;;3.20;78.70;;;;;;6183730;23;20013;-71
2022/02/13 08:51:07;;;;;;;2.95;1.35;;;3.30;78.80;;;;;;6183464;23;20009;-72
2022/02/13 08:53:33;;;;;;;3.55;1.48;;;3.30;78.80;;;;;;6183563;23;20009;-71
2022/02/13 08:55:59;;;;;;;2.03;1.40;;;3.40;78.70;;;;;;6183057;23;20303;-72
2022/02/13 08:58:24;;;;;;;4.82;1.83;;;3.50;78.70;;;;;;6183963;23;20089;-71
2022/02/13 09:00:50;;;;;;;4.03;1.70;;;3.50;78.50;;;;;;6183328;23;20009;-72
2022/02/13 09:03:16;;;;;;;2.92;1.60;;;3.60;78.50;;;;;;6183802;23;20028;-72
2022/02/13 09:05:42;;;;;;;3.55;1.83;;;3.70;78.40;;;;;;6184077;23;20448;-71
2022/02/13 09:08:08;;;;;;;3.33;1.70;;;3.70;78.30;;;;;;6184097;23;20001;-72
2022/02/13 09:10:34;;;;;;;3.00;1.63;;;3.80;78.30;;;;;;6184048;23;19997;-72
2022/02/13 09:13:00;;;;;;;3.30;1.80;;;3.80;78.20;;;;;;6181594;23;20012;-72
2022/02/13 09:15:28;;;;;;;2.70;1.75;;;3.90;78.20;;;;;;6183764;23;20029;-72
2022/02/13 09:17:54;;;;;;;3.67;1.80;;;3.90;78.20;;;;;;6183763;23;20325;-72
2022/02/13 09:20:20;;;;;;;3.58;1.80;;;3.90;78.10;;;;;;6182437;23;20104;-71
2022/02/13 09:22:46;;;;;;;3.38;1.70;;;4.00;78.10;;;;;;6183276;23;20005;-72
2022/02/13 09:25:12;;;;;;;3.30;1.80;;;4.20;78.10;;;;;;6183197;23;20379;-72
2022/02/13 09:27:38;;;;;;;2.70;1.55;;;4.20;78.00;;;;;;6183749;23;20001;-72
2022/02/13 09:30:05;;;;;;;3.22;1.50;;;4.30;77.90;;;;;;6183200;23;20326;-72
2022/02/13 09:32:30;;;;;;;2.60;1.50;;;4.50;77.90;;;;;;6179907;23;20012;-72
2022/02/13 09:34:57;;;;;;;2.33;1.30;;;4.60;77.70;;;;;;6156848;23;20029;-72
2022/02/13 09:37:23;;;;;;;2.13;1.17;;;4.60;77.60;;;;;;6183623;23;20005;-71
2022/02/13 09:39:49;;;;;;;3.45;1.30;;;4.70;77.50;;;;;;6181769;23;20001;-71
2022/02/13 09:42:19;;;;;;;2.38;1.48;;;4.80;77.50;;;;;;6181922;23;20048;-71
2022/02/13 09:44:45;;;;;;;3.72;1.40;;;4.80;77.40;;;;;;6181553;23;20384;-72
2022/02/13 09:47:11;;;;;;;2.15;1.40;;;4.80;77.40;;;;;;6183476;23;20002;-70
2022/02/13 09:49:37;;;;;;;1.98;1.27;;;4.80;77.40;;;;;;6183503;23;20001;-71
2022/02/13 09:52:04;;;;;;;2.28;1.40;;;4.90;77.60;;;;;;6183471;23;20295;-71
2022/02/13 09:54:29;;;;;;;2.78;1.55;;;4.90;77.50;;;;;;6183332;23;20060;-71
2022/02/13 09:57:59;;;;;;;3.53;1.73;;;4.90;77.40;;;;;;6182831;23;20005;-71
2022/02/13 09:59:58;;;;;;;4.07;2.20;;;4.90;77.50;;;;;;6182701;23;20341;-70
2022/02/13 10:02:39;;;;;;;3.90;2.15;;;4.90;77.40;;;;;;6182843;23;20025;-70
2022/02/13 10:05:07;;;;;;;3.67;1.90;;;5.00;77.40;;;;;;6183097;23;20010;-70
2022/02/13 10:07:36;;;;;;;3.00;1.48;;;5.00;77.40;;;;;;6183526;23;20009;-70
2022/02/13 10:10:05;;;;;;;3.65;1.88;;;5.10;77.40;;;;;;6184452;23;20365;-71
2022/02/13 10:12:42;;;;;;;2.80;1.85;;;5.10;77.30;;;;;;6182866;23;20310;-71
2022/02/13 10:15:24;;;;;;;3.67;2.15;;;5.10;77.20;;;;;;6183020;23;20005;-71
2022/02/13 10:18:00;;;;;;;2.85;1.80;;;5.20;77.20;;;;;;6184043;23;20005;-71
2022/02/13 10:20:31;;;;;;;3.45;1.95;;;5.20;77.10;;;;;;6184729;23;20334;-72
2022/02/13 10:23:03;;;;;;;2.85;1.63;;;5.30;77.10;;;;;;6184684;23;20017;-71
2022/02/13 10:25:28;;;;;;;3.53;1.67;;;5.30;77.00;;;;;;6183753;23;20001;-71
2022/02/13 10:27:54;;;;;;;3.65;1.98;;;5.40;76.90;;;;;;6184626;23;20095;-72
2022/02/13 10:30:38;;;;;;;3.38;1.98;;;5.50;76.90;;;;;;6184773;23;20016;-72
2022/02/13 10:33:21;;;;;;;3.92;1.92;;;5.50;76.80;;;;;;6184231;23;19997;-72
2022/02/13 10:36:10;;;;;;;3.58;2.20;;;5.60;76.70;;;;;;6182627;23;20005;-72
2022/02/13 10:38:40;;;;;;;3.13;1.90;;;5.60;76.70;;;;;;6184724;23;20333;-71
2022/02/13 10:41:22;;;;;;;3.08;1.60;;;5.60;76.60;;;;;;6184175;23;20001;-71
2022/02/13 10:43:58;;;;;;;3.58;1.80;;;5.70;76.60;;;;;;6184106;23;20012;-71
2022/02/13 10:46:29;;;;;;;2.78;1.60;;;5.80;76.50;;;;;;6184012;23;20017;-71
2022/02/13 10:48:54;;;;;;;3.25;1.55;;;5.90;76.50;;;;;;6184181;23;20004;-71
2022/02/13 10:51:21;;;;;;;3.65;1.70;;;5.90;76.50;;;;;;6184722;23;20465;-72
2022/02/13 10:53:48;;;;;;;3.45;1.88;;;6.00;76.30;;;;;;6184084;23;20001;-71
2022/02/13 10:56:13;;;;;;;2.35;1.40;;;6.10;76.20;;;;;;6181392;23;20024;-70
2022/02/13 10:58:39;;;;;;;3.22;1.60;;;6.20;76.20;;;;;;6182222;23;20425;-71
2022/02/13 11:01:06;;;;;;;2.75;1.60;;;6.20;76.00;;;;;;6182361;23;20009;-71
2022/02/13 11:03:35;;;;;;;2.42;1.48;;;6.30;76.00;;;;;;6184118;23;20005;-71
2022/02/13 11:06:03;;;;;;;2.88;1.65;;;6.40;75.90;;;;;;6183658;23;20017;-71
2022/02/13 11:08:33;;;;;;;3.35;1.70;;;6.50;75.80;;;;;;6182969;23;20012;-71
2022/02/13 11:11:00;;;;;;;3.53;2.03;;;6.60;75.50;;;;;;6183726;23;20330;-71
2022/02/13 11:13:28;;;;;;;3.17;1.73;;;6.80;75.50;;;;;;6184496;23;20080;-71
2022/02/13 11:15:54;;;;;;;3.10;1.85;;;6.80;75.20;;;;;;6184385;23;20007;-71
2022/02/13 11:18:24;;;;;;;3.30;1.90;;;6.90;75.10;;;;;;6183627;23;20429;-71
2022/02/13 11:20:52;;;;;;;4.40;1.92;;;7.00;75.00;;;;;;6183766;23;20437;-71
2022/02/13 11:23:33;;;;;;;2.85;1.63;;;7.10;74.90;;;;;;6182235;23;20032;-72
2022/02/13 11:26:00;;;;;;;;;;;7.10;74.80;;;;;;6182993;23;20333;-71
2022/02/13 11:28:57;;;;;;;3.03;1.55;;;7.20;74.80;;;;;;6184491;23;20320;-72
2022/02/13 11:31:40;;;;;;;3.22;1.63;;;7.20;74.60;;;;;;6182226;23;20005;-71
2022/02/13 11:34:16;;;;;;;2.95;1.50;;;7.40;74.60;;;;;;6183981;23;20370;-72
2022/02/13 11:36:47;;;;;;;2.65;1.60;;;7.40;74.40;;;;;;6184235;23;20013;-71
2022/02/13 11:39:35;;;;;;;4.13;2.00;;;7.50;74.40;;;;;;6184011;23;20059;-71
2022/02/13 11:42:04;;;;;;;3.35;1.67;;;7.60;74.30;;;;;;6184233;23;20059;-71
2022/02/13 11:44:33;;;;;;;2.72;1.40;;;7.70;74.30;;;;;;6184240;23;20001;-71
2022/02/13 11:46:59;;;;;;;3.28;1.67;;;7.70;74.20;;;;;;6183807;23;20012;-72
2022/02/13 11:49:25;;;;;;;2.92;1.50;;;7.80;74.10;;;;;;6182343;23;20326;-71
2022/02/13 11:51:58;;;;;;;3.33;2.00;;;7.90;74.00;;;;;;6184119;23;20005;-71
2022/02/13 11:54:55;;;;;;;3.03;1.80;;;7.90;73.90;;;;;;6157326;23;20001;-72
2022/02/13 11:57:22;;;;;;;4.68;2.00;;;7.90;73.80;;;;;;6181447;23;20012;-71
2022/02/13 12:00:12;;;;;;;3.47;1.85;;;8.00;73.90;;;;;;6156113;23;20326;-70
2022/02/13 12:02:44;;;;;;;2.83;1.70;;;8.10;74.00;;;;;;6163272;23;19998;-71
2022/02/13 12:05:15;;;;;;;2.92;1.80;;;8.20;73.80;;;;;;6184166;23;20162;-71
2022/02/13 12:08:01;;;;;;;3.17;1.77;;;8.30;73.80;;;;;;6184649;23;20310;-71
2022/02/13 12:10:30;;;;;;;3.97;1.77;;;8.40;73.90;;;;;;6184412;23;20004;-72
2022/02/13 12:13:05;;;;;;;2.65;1.70;;;8.50;73.70;;;;;;6182039;23;19997;-72
2022/02/13 12:15:30;;;;;;;3.55;1.92;;;8.70;73.50;;;;;;6183778;23;20009;-72
2022/02/13 12:18:12;;;;;;;3.60;1.92;;;8.70;73.20;;;;;;6183518;23;20132;-71
2022/02/13 12:20:39;;;;;;;3.13;1.70;;;8.80;73.20;;;;;;6184339;23;20972;-71
2022/02/13 12:23:07;;;;;;;2.67;1.45;;;8.90;73.90;;;;;;6184239;23;20433;-72
2022/02/13 12:25:35;;;;;;;3.00;1.67;;;9.00;73.10;;;;;;6182050;23;20055;-72
2022/02/13 12:28:04;;;;;;;2.92;1.73;;;9.20;73.10;;;;;;6184196;23;20016;-71
2022/02/13 12:30:30;;;;;;;2.95;1.75;;;9.30;72.90;;;;;;6157161;23;20418;-72
2022/02/13 12:32:58;;;;;;;2.78;1.25;;;9.30;72.90;;;;;;6183441;23;20084;-72
2022/02/13 12:35:29;;;;;;;2.25;1.30;;;9.40;72.80;;;;;;6182102;23;20008;-72
2022/02/13 12:37:57;;;;;;;2.22;1.20;;;9.50;72.80;;;;;;6182222;23;20017;-73
2022/02/13 12:40:28;;;;;;;2.20;1.40;;;9.70;72.70;;;;;;6184325;23;20082;-72
2022/02/13 12:42:57;;;;;;;2.60;1.50;;;9.70;72.50;;;;;;6184235;23;20039;-72
2022/02/13 12:45:26;;;;;;;2.10;1.20;;;9.70;72.60;;;;;;6183325;23;20013;-72
2022/02/13 12:47:54;;;;;;;1.98;1.20;;;9.70;72.70;;;;;;6184230;23;20103;-72
2022/02/13 12:50:23;;;;;;;1.85;1.10;;;9.70;72.80;;;;;;6182073;23;20008;-71
2022/02/13 12:52:49;;;;;;;1.98;1.40;;;9.70;72.80;;;;;;6184335;23;20068;-71
2022/02/13 12:55:18;;;;;;;2.05;1.50;;;9.70;72.80;;;;;;6183615;23;20001;-71
2022/02/13 12:57:48;;;;;;;2.55;1.55;;;9.70;72.80;;;;;;6183993;23;20001;-71
2022/02/13 13:00:20;;;;;;;3.20;1.60;;;9.70;72.60;;;;;;6184083;23;20002;-71